createdAt,value
2023-05-05T00:01:46.447Z,101174.39
2023-05-05T00:04:14.302Z,101175.95
2023-05-05T00:06:42.260Z,101180.99
2023-05-05T00:09:10.047Z,101180.41
2023-05-05T00:11:37.883Z,101183.29
2023-05-05T00:14:06.458Z,101187.81
2023-05-05T00:16:34.393Z,101186.40
2023-05-05T00:19:02.253Z,101183.84
2023-05-05T00:21:30.039Z,101181.66
2023-05-05T00:23:57.825Z,101178.56
2023-05-05T00:26:25.731Z,101179.13
2023-05-05T00:28:53.696Z,101174.14
2023-05-05T00:31:21.859Z,101177.93
2023-05-05T00:33:49.769Z,101177.40
2023-05-05T00:36:17.808Z,101176.35
2023-05-05T00:38:45.625Z,101182.27
2023-05-05T00:41:13.486Z,101184.82
2023-05-05T00:43:41.361Z,101188.88
2023-05-05T00:46:31.865Z,101185.33
2023-05-05T00:49:00.956Z,101182.93
2023-05-05T00:51:28.917Z,101181.75
2023-05-05T00:53:57.133Z,101175.05
2023-05-05T00:56:27.214Z,101176.24
2023-05-05T00:58:55.172Z,101173.50
2023-05-05T01:01:23.110Z,101174.75
2023-05-05T01:03:51.217Z,101173.45
2023-05-05T01:06:46.924Z,101172.86
2023-05-05T01:09:38.925Z,101169.74
2023-05-05T01:12:28.238Z,101170.02
2023-05-05T01:15:19.239Z,101168.91
2023-05-05T01:17:59.094Z,101170.31
2023-05-05T01:20:49.375Z,101172.35
2023-05-05T01:23:59.962Z,101167.19
2023-05-05T01:27:00.189Z,101171.30
2023-05-05T01:29:35.590Z,101171.72
2023-05-05T01:32:09.558Z,101166.80
2023-05-05T01:34:45.086Z,101168.75
2023-05-05T01:37:24.974Z,101170.59
2023-05-05T01:39:58.593Z,101175.33
2023-05-05T01:42:27.587Z,101172.24
2023-05-05T01:44:57.201Z,101175.48
2023-05-05T01:47:26.217Z,101175.98
2023-05-05T01:49:54.856Z,101179.27
2023-05-05T01:52:23.798Z,101178.81
2023-05-05T01:54:52.932Z,101176.52
2023-05-05T01:57:25.129Z,101170.32
2023-05-05T01:59:54.392Z,101170.70
2023-05-05T02:02:24.827Z,101174.17
2023-05-05T02:04:54.562Z,101173.05
2023-05-05T02:07:24.252Z,101177.09
2023-05-05T02:09:53.011Z,101177.34
2023-05-05T02:12:22.844Z,101175.80
2023-05-05T02:14:51.520Z,101174.35
2023-05-05T02:17:21.707Z,101173.50
2023-05-05T02:19:52.397Z,101176.27
2023-05-05T02:22:20.576Z,101175.20
2023-05-05T02:24:48.411Z,101170.90
2023-05-05T02:27:20.125Z,101170.77
2023-05-05T02:30:01.460Z,101170.67
2023-05-05T02:32:44.880Z,101177.77
2023-05-05T02:35:28.518Z,101170.95
2023-05-05T02:38:12.713Z,101170.60
2023-05-05T02:40:44.192Z,101169.83
2023-05-05T02:43:19.545Z,101164.58
2023-05-05T02:45:48.135Z,101168.55
2023-05-05T02:48:16.605Z,101172.36
2023-05-05T02:50:44.430Z,101170.49
2023-05-05T02:53:26.883Z,101173.69
2023-05-05T02:56:14.667Z,101170.92
2023-05-05T02:58:59.891Z,101176.77
2023-05-05T03:01:53.778Z,101180.95
2023-05-05T03:04:31.720Z,101187.15
2023-05-05T03:07:06.857Z,101187.08
2023-05-05T03:09:45.465Z,101188.77
2023-05-05T03:12:21.811Z,101186.80
2023-05-05T03:15:01.736Z,101188.13
2023-05-05T03:17:32.619Z,101190.96
2023-05-05T03:20:03.399Z,101187.48
2023-05-05T03:22:37.684Z,101186.00
2023-05-05T03:25:06.421Z,101193.20
2023-05-05T03:27:34.206Z,101196.91
2023-05-05T03:30:02.446Z,101191.66
2023-05-05T03:32:32.424Z,101190.56
2023-05-05T03:35:01.016Z,101188.98
2023-05-05T03:37:31.741Z,101187.57
2023-05-05T03:39:59.952Z,101183.39
2023-05-05T03:42:27.961Z,101177.17
2023-05-05T03:44:57.078Z,101175.68
2023-05-05T03:47:25.293Z,101180.63
2023-05-05T03:49:53.608Z,101183.53
2023-05-05T03:52:21.509Z,101187.69
2023-05-05T03:54:49.585Z,101191.71
2023-05-05T03:57:17.948Z,101189.05
2023-05-05T03:59:45.752Z,101186.92
2023-05-05T04:02:13.872Z,101187.23
2023-05-05T04:04:41.749Z,101187.92
2023-05-05T04:07:09.886Z,101187.23
2023-05-05T04:09:44.465Z,101185.23
2023-05-05T04:12:13.009Z,101189.96
2023-05-05T04:14:41.214Z,101195.63
2023-05-05T04:17:09.709Z,101196.06
2023-05-05T04:19:37.604Z,101190.09
2023-05-05T04:22:05.564Z,101199.66
2023-05-05T04:24:33.695Z,101197.48
2023-05-05T04:27:02.230Z,101199.58
2023-05-05T04:29:30.245Z,101202.38
2023-05-05T04:31:57.988Z,101200.90
2023-05-05T04:34:25.834Z,101202.54
2023-05-05T04:36:53.738Z,101206.92
2023-05-05T04:39:22.093Z,101207.12
2023-05-05T04:41:50.740Z,101206.45
2023-05-05T04:44:18.733Z,101206.52
2023-05-05T04:46:46.762Z,101208.20
2023-05-05T04:49:14.634Z,101207.66
2023-05-05T04:51:43.620Z,101207.85
2023-05-05T04:54:11.422Z,101209.64
2023-05-05T04:56:39.243Z,101215.75
2023-05-05T04:59:07.581Z,101211.39
2023-05-05T05:01:38.307Z,101220.74
2023-05-05T05:04:07.600Z,101223.16
2023-05-05T05:06:36.516Z,101218.98
2023-05-05T05:09:04.558Z,101227.02
2023-05-05T05:11:32.421Z,101229.07
2023-05-05T05:14:01.289Z,101229.04
2023-05-05T05:16:29.094Z,101231.52
2023-05-05T05:18:57.192Z,101235.52
2023-05-05T05:21:26.059Z,101236.29
2023-05-05T05:23:53.996Z,101243.23
2023-05-05T05:26:22.150Z,101244.19
2023-05-05T05:28:50.753Z,101249.85
2023-05-05T05:31:18.630Z,101251.44
2023-05-05T05:33:46.442Z,101249.46
2023-05-05T05:36:14.863Z,101252.62
2023-05-05T05:38:43.151Z,101258.59
2023-05-05T05:41:11.472Z,101260.88
2023-05-05T05:43:41.465Z,101266.30
2023-05-05T05:46:10.410Z,101263.16
2023-05-05T05:48:39.204Z,101269.58
2023-05-05T05:51:07.148Z,101269.14
2023-05-05T05:53:35.603Z,101261.95
2023-05-05T05:56:04.166Z,101263.63
2023-05-05T05:58:32.461Z,101261.83
2023-05-05T06:01:00.268Z,101266.54
2023-05-05T06:03:28.710Z,101258.15
2023-05-05T06:05:58.932Z,101256.93
2023-05-05T06:08:26.902Z,101252.63
2023-05-05T06:10:55.589Z,101255.52
2023-05-05T06:13:23.607Z,101255.85
2023-05-05T06:15:53.045Z,101259.06
2023-05-05T06:18:21.041Z,101263.59
2023-05-05T06:20:50.874Z,101266.66
2023-05-05T06:23:19.024Z,101269.48
2023-05-05T06:25:51.043Z,101265.58
2023-05-05T06:28:18.864Z,101263.79
2023-05-05T06:30:46.678Z,101265.31
2023-05-05T06:33:14.805Z,101267.45
2023-05-05T06:35:42.647Z,101271.61
2023-05-05T06:38:10.525Z,101268.11
2023-05-05T06:40:38.582Z,101263.33
2023-05-05T06:43:06.436Z,101265.21
2023-05-05T06:45:37.292Z,101266.06
2023-05-05T06:48:05.153Z,101268.11
2023-05-05T06:50:33.177Z,101267.22
2023-05-05T06:53:01.223Z,101269.59
2023-05-05T06:55:29.136Z,101263.56
2023-05-05T06:57:57.052Z,101268.94
2023-05-05T07:00:25.064Z,101269.20
2023-05-05T07:02:52.889Z,101267.88
2023-05-05T07:05:20.957Z,101267.80
2023-05-05T07:07:54.687Z,101267.50
2023-05-05T07:10:24.480Z,101269.63
2023-05-05T07:12:52.524Z,101273.47
2023-05-05T07:15:28.615Z,101275.45
2023-05-05T07:17:58.124Z,101275.48
2023-05-05T07:20:26.760Z,101274.82
2023-05-05T07:22:54.846Z,101274.27
2023-05-05T07:25:22.693Z,101272.32
2023-05-05T07:27:50.773Z,101271.48
2023-05-05T07:30:19.494Z,101267.67
2023-05-05T07:32:47.936Z,101268.45
2023-05-05T07:35:15.990Z,101265.91
2023-05-05T07:37:45.809Z,101266.30
2023-05-05T07:40:13.839Z,101264.20
2023-05-05T07:42:41.978Z,101264.39
2023-05-05T07:45:10.997Z,101269.85
2023-05-05T07:47:39.117Z,101270.20
2023-05-05T07:50:08.711Z,101269.35
2023-05-05T07:52:46.779Z,101273.31
2023-05-05T07:55:19.770Z,101275.25
2023-05-05T07:57:48.204Z,101276.14
2023-05-05T08:00:19.218Z,101281.15
2023-05-05T08:02:47.889Z,101280.95
2023-05-05T08:05:16.719Z,101285.59
2023-05-05T08:07:44.614Z,101288.05
2023-05-05T08:10:12.872Z,101288.21
2023-05-05T08:12:40.866Z,101294.77
2023-05-05T08:15:09.663Z,101292.45
2023-05-05T08:17:49.285Z,101300.41
2023-05-05T08:20:19.484Z,101294.20
2023-05-05T08:22:48.106Z,101295.17
2023-05-05T08:25:16.028Z,101303.98
2023-05-05T08:27:44.763Z,101302.29
2023-05-05T08:30:13.420Z,101300.67
2023-05-05T08:32:41.447Z,101299.99
2023-05-05T08:35:10.167Z,101298.09
2023-05-05T08:37:38.344Z,101300.65
2023-05-05T08:40:07.358Z,101300.53
2023-05-05T08:42:38.531Z,101300.58
2023-05-05T08:45:10.225Z,101303.45
2023-05-05T08:47:39.454Z,101304.81
2023-05-05T08:50:10.946Z,101298.08
2023-05-05T08:52:44.350Z,101299.32
2023-05-05T08:55:38.672Z,101302.49
2023-05-05T08:58:07.264Z,101299.44
2023-05-05T09:00:36.016Z,101303.90
2023-05-05T09:03:05.710Z,101298.84
2023-05-05T09:05:33.625Z,101293.95
2023-05-05T09:08:02.078Z,101295.88
2023-05-05T09:10:30.959Z,101299.07
2023-05-05T09:12:58.978Z,101294.10
2023-05-05T09:15:28.318Z,101299.14
2023-05-05T09:18:01.321Z,101300.73
2023-05-05T09:20:37.803Z,101301.56
2023-05-05T09:23:09.912Z,101294.33
2023-05-05T09:25:38.786Z,101288.59
2023-05-05T09:28:16.291Z,101289.70
2023-05-05T09:30:47.156Z,101298.27
2023-05-05T09:33:29.691Z,101295.23
2023-05-05T09:35:58.816Z,101299.96
2023-05-05T09:38:26.637Z,101298.90
2023-05-05T09:40:54.828Z,101299.79
2023-05-05T09:43:23.821Z,101302.65
2023-05-05T09:45:51.861Z,101296.60
2023-05-05T09:48:38.216Z,101296.14
2023-05-05T09:51:06.078Z,101295.54
2023-05-05T09:53:42.356Z,101306.52
2023-05-05T09:56:10.368Z,101312.39
2023-05-05T09:58:38.243Z,101312.29
2023-05-05T10:01:06.279Z,101315.28
2023-05-05T10:03:49.807Z,101313.73
2023-05-05T10:06:17.661Z,101315.73
2023-05-05T10:08:45.497Z,101307.97
2023-05-05T10:11:13.857Z,101306.44
2023-05-05T10:13:42.204Z,101308.08
2023-05-05T10:16:13.248Z,101302.04
2023-05-05T10:18:46.336Z,101301.29
2023-05-05T10:21:19.820Z,101305.05
2023-05-05T10:23:54.571Z,101303.73
2023-05-05T10:26:25.552Z,101307.37
2023-05-05T10:28:56.345Z,101295.48
2023-05-05T10:31:30.530Z,101292.20
2023-05-05T10:34:10.279Z,101291.61
2023-05-05T10:36:39.265Z,101281.19
2023-05-05T10:39:09.262Z,101277.92
2023-05-05T10:41:37.715Z,101283.95
2023-05-05T10:44:06.710Z,101282.58
2023-05-05T10:46:34.679Z,101278.44
2023-05-05T10:49:31.155Z,101277.66
2023-05-05T10:53:00.181Z,101278.61
2023-05-05T10:55:54.004Z,101271.83
2023-05-05T10:58:47.142Z,101266.08
2023-05-05T11:01:33.145Z,101263.02
2023-05-05T11:04:21.760Z,101257.21
2023-05-05T11:07:08.529Z,101256.02
2023-05-05T11:09:58.184Z,101248.91
2023-05-05T11:12:26.199Z,101244.11
2023-05-05T11:15:31.337Z,101242.81
2023-05-05T11:18:03.212Z,101243.14
2023-05-05T11:20:36.200Z,101237.71
2023-05-05T11:23:04.013Z,101232.48
2023-05-05T11:25:35.054Z,101229.41
2023-05-05T11:28:19.506Z,101232.26
2023-05-05T11:30:56.939Z,101236.02
2023-05-05T11:33:34.986Z,101236.02
2023-05-05T11:36:13.946Z,101227.59
2023-05-05T11:39:03.304Z,101227.64
2023-05-05T11:41:34.002Z,101222.31
2023-05-05T11:44:19.818Z,101227.83
2023-05-05T11:46:50.576Z,101229.78
2023-05-05T11:49:29.027Z,101223.76
2023-05-05T11:52:04.232Z,101222.37
2023-05-05T11:54:34.502Z,101224.86
2023-05-05T11:57:08.218Z,101225.71
2023-05-05T11:59:49.635Z,101232.48
2023-05-05T12:02:22.014Z,101227.25
2023-05-05T12:04:50.946Z,101227.59
2023-05-05T12:07:22.021Z,101230.39
2023-05-05T12:09:50.818Z,101229.68
2023-05-05T12:12:19.480Z,101228.43
2023-05-05T12:14:52.504Z,101233.83
2023-05-05T12:17:22.552Z,101224.55
2023-05-05T12:19:52.585Z,101228.73
2023-05-05T12:22:25.935Z,101233.27
2023-05-05T12:25:02.227Z,101233.63
2023-05-05T12:27:30.565Z,101234.96
2023-05-05T12:30:13.828Z,101233.23
2023-05-05T12:32:42.246Z,101229.70
2023-05-05T12:35:11.510Z,101228.15
2023-05-05T12:37:39.846Z,101227.79
2023-05-05T12:40:44.795Z,101229.87
2023-05-05T12:43:32.705Z,101225.36
2023-05-05T12:46:14.200Z,101226.59
2023-05-05T12:48:47.388Z,101226.11
2023-05-05T12:51:27.069Z,101226.24
2023-05-05T12:54:11.566Z,101226.56
2023-05-05T12:56:46.793Z,101224.02
2023-05-05T12:59:24.093Z,101222.62
2023-05-05T13:01:58.350Z,101222.38
2023-05-05T13:04:28.549Z,101222.82
2023-05-05T13:07:14.059Z,101213.50
2023-05-05T13:09:42.379Z,101212.00
2023-05-05T13:12:12.983Z,101214.58
2023-05-05T13:14:41.783Z,101214.70
2023-05-05T13:17:14.368Z,101213.41
2023-05-05T13:19:45.799Z,101207.45
2023-05-05T13:22:13.819Z,101205.78
2023-05-05T13:24:51.827Z,101203.48
2023-05-05T13:27:20.858Z,101202.55
2023-05-05T13:29:48.854Z,101192.50
2023-05-05T13:32:16.658Z,101188.45
2023-05-05T13:34:44.552Z,101187.48
2023-05-05T13:37:12.389Z,101188.70
2023-05-05T13:39:40.484Z,101182.95
2023-05-05T13:42:08.725Z,101187.05
2023-05-05T13:44:36.592Z,101188.52
2023-05-05T13:47:04.637Z,101184.30
2023-05-05T13:49:32.455Z,101181.14
2023-05-05T13:52:00.318Z,101185.75
2023-05-05T13:54:28.176Z,101180.89
2023-05-05T13:56:56.017Z,101169.52
2023-05-05T13:59:25.694Z,101159.70
2023-05-05T14:01:53.762Z,101162.77
2023-05-05T14:04:21.610Z,101165.19
2023-05-05T14:06:49.424Z,101166.43
2023-05-05T14:09:17.234Z,101161.70
2023-05-05T14:11:45.059Z,101161.45
2023-05-05T14:14:12.896Z,101152.91
2023-05-05T14:16:40.730Z,101160.54
2023-05-05T14:19:08.636Z,101169.09
2023-05-05T14:21:36.444Z,101165.11
2023-05-05T14:24:04.526Z,101163.11
2023-05-05T14:26:32.413Z,101161.24
2023-05-05T14:29:00.556Z,101160.95
2023-05-05T14:31:28.557Z,101147.90
2023-05-05T14:33:56.430Z,101155.61
2023-05-05T14:36:24.231Z,101155.01
2023-05-05T14:38:52.231Z,101154.48
2023-05-05T14:41:20.153Z,101155.91
2023-05-05T14:43:47.981Z,101156.11
2023-05-05T14:46:15.819Z,101151.00
2023-05-05T14:48:43.678Z,101141.43
2023-05-05T14:51:11.559Z,101143.17
2023-05-05T14:53:39.396Z,101142.92
2023-05-05T14:56:07.378Z,101140.40
2023-05-05T14:58:35.242Z,101146.70
2023-05-05T15:01:03.226Z,101150.00
2023-05-05T15:03:31.541Z,101146.89
2023-05-05T15:05:59.588Z,101152.70
2023-05-05T15:08:27.469Z,101143.99
2023-05-05T15:10:55.589Z,101150.19
2023-05-05T15:13:23.578Z,101151.22
2023-05-05T15:15:51.658Z,101146.73
2023-05-05T15:18:20.045Z,101139.66
2023-05-05T15:20:47.958Z,101141.41
2023-05-05T15:23:16.112Z,101138.19
2023-05-05T15:25:44.020Z,101137.77
2023-05-05T15:28:11.868Z,101139.13
2023-05-05T15:30:39.732Z,101142.48
2023-05-05T15:33:07.680Z,101146.59
2023-05-05T15:35:36.286Z,101144.89
2023-05-05T15:38:04.458Z,101151.48
2023-05-05T15:40:32.585Z,101152.83
2023-05-05T15:43:00.420Z,101155.86
2023-05-05T15:45:28.289Z,101151.40
2023-05-05T15:47:56.102Z,101153.56
2023-05-05T15:50:23.926Z,101154.65
2023-05-05T15:52:51.786Z,101149.27
2023-05-05T15:55:19.657Z,101154.91
2023-05-05T15:57:47.447Z,101145.17
2023-05-05T16:00:15.856Z,101147.27
2023-05-05T16:02:43.801Z,101147.48
2023-05-05T16:05:12.362Z,101152.06
2023-05-05T16:07:40.365Z,101152.30
2023-05-05T16:10:09.915Z,101143.95
2023-05-05T16:12:38.240Z,101144.56
2023-05-05T16:15:07.093Z,101137.34
2023-05-05T16:17:35.291Z,101135.09
2023-05-05T16:20:03.829Z,101137.39
2023-05-05T16:22:31.857Z,101137.46
2023-05-05T16:24:59.710Z,101133.70
2023-05-05T16:27:27.526Z,101133.20
2023-05-05T16:29:56.769Z,101129.89
2023-05-05T16:32:26.223Z,101131.73
2023-05-05T16:34:54.039Z,101127.17
2023-05-05T16:37:21.838Z,101121.95
2023-05-05T16:39:49.616Z,101122.61
2023-05-05T16:42:17.406Z,101121.05
2023-05-05T16:44:45.194Z,101123.72
2023-05-05T16:47:13.111Z,101126.11
2023-05-05T16:49:40.891Z,101122.69
2023-05-05T16:52:08.679Z,101129.25
2023-05-05T16:54:36.487Z,101122.06
2023-05-05T16:57:04.259Z,101125.33
2023-05-05T16:59:32.048Z,101123.78
2023-05-05T17:02:00.174Z,101122.20
2023-05-05T17:04:28.111Z,101122.51
2023-05-05T17:06:56.300Z,101119.50
2023-05-05T17:09:24.994Z,101126.45
2023-05-05T17:11:52.799Z,101128.50
2023-05-05T17:14:20.677Z,101126.75
2023-05-05T17:16:48.504Z,101122.23
2023-05-05T17:19:16.573Z,101130.58
2023-05-05T17:21:44.401Z,101132.80
2023-05-05T17:24:12.260Z,101138.66
2023-05-05T17:26:41.383Z,101140.32
2023-05-05T17:29:10.416Z,101137.48
2023-05-05T17:31:40.257Z,101135.77
2023-05-05T17:34:08.073Z,101141.16
2023-05-05T17:36:35.899Z,101147.45
2023-05-05T17:39:03.772Z,101149.29
2023-05-05T17:41:31.637Z,101147.02
2023-05-05T17:43:59.427Z,101152.83
2023-05-05T17:46:27.905Z,101152.55
2023-05-05T17:48:55.808Z,101155.23
2023-05-05T17:51:23.743Z,101155.94
2023-05-05T17:53:51.839Z,101161.49
2023-05-05T17:56:19.712Z,101161.43
2023-05-05T17:58:48.149Z,101158.03
2023-05-05T18:01:24.337Z,101155.05
2023-05-05T18:03:52.756Z,101152.09
2023-05-05T18:06:20.545Z,101154.41
2023-05-05T18:08:48.463Z,101153.53
2023-05-05T18:11:16.360Z,101162.83
2023-05-05T18:13:44.141Z,101162.35
2023-05-05T18:16:12.038Z,101157.92
2023-05-05T18:18:41.250Z,101162.48
2023-05-05T18:21:12.267Z,101163.13
2023-05-05T18:23:40.415Z,101164.42
2023-05-05T18:26:08.497Z,101166.98
2023-05-05T18:28:37.362Z,101167.68
2023-05-05T18:31:05.307Z,101169.86
2023-05-05T18:33:33.180Z,101172.14
2023-05-05T18:36:03.432Z,101174.21
2023-05-05T18:38:32.326Z,101172.13
2023-05-05T18:41:00.205Z,101174.16
2023-05-05T18:43:28.103Z,101171.14
2023-05-05T18:45:55.959Z,101170.16
2023-05-05T18:48:23.822Z,101171.86
2023-05-05T18:50:52.498Z,101170.56
2023-05-05T18:53:20.741Z,101166.92
2023-05-05T18:55:49.332Z,101167.18
2023-05-05T18:58:17.640Z,101161.63
2023-05-05T19:00:45.487Z,101164.08
2023-05-05T19:03:13.283Z,101161.94
2023-05-05T19:05:42.075Z,101167.90
2023-05-05T19:08:10.300Z,101165.08
2023-05-05T19:10:38.164Z,101166.41
2023-05-05T19:13:06.033Z,101165.63
2023-05-05T19:15:34.321Z,101160.98
2023-05-05T19:18:02.975Z,101166.97
2023-05-05T19:20:31.709Z,101167.75
2023-05-05T19:23:03.677Z,101166.89
2023-05-05T19:25:31.681Z,101167.15
2023-05-05T19:27:59.753Z,101169.54
2023-05-05T19:30:27.605Z,101165.41
2023-05-05T19:32:55.474Z,101168.91
2023-05-05T19:35:23.437Z,101159.23
2023-05-05T19:37:51.330Z,101160.00
2023-05-05T19:40:19.278Z,101160.44
2023-05-05T19:42:47.172Z,101159.53
2023-05-05T19:45:15.570Z,101155.19
2023-05-05T19:47:43.419Z,101158.35
2023-05-05T19:50:12.367Z,101157.90
2023-05-05T19:52:41.739Z,101160.54
2023-05-05T19:55:10.543Z,101166.15
2023-05-05T19:57:40.338Z,101169.16
2023-05-05T20:00:10.445Z,101166.30
2023-05-05T20:02:38.664Z,101161.90
2023-05-05T20:05:06.928Z,101159.98
2023-05-05T20:07:34.784Z,101159.55
2023-05-05T20:10:02.627Z,101163.30
2023-05-05T20:12:30.879Z,101163.05
2023-05-05T20:14:58.636Z,101167.25
2023-05-05T20:17:26.424Z,101163.86
2023-05-05T20:19:54.706Z,101159.72
2023-05-05T20:22:22.473Z,101161.83
2023-05-05T20:24:50.441Z,101163.41
2023-05-05T20:27:18.249Z,101166.07
2023-05-05T20:29:46.238Z,101162.86
2023-05-05T20:32:14.227Z,101161.96
2023-05-05T20:34:42.019Z,101164.55
2023-05-05T20:37:11.745Z,101157.30
2023-05-05T20:39:42.275Z,101157.77
2023-05-05T20:42:10.817Z,101155.89
2023-05-05T20:44:40.035Z,101159.63
2023-05-05T20:47:07.954Z,101154.88
2023-05-05T20:49:36.128Z,101156.02
2023-05-05T20:52:04.069Z,101161.54
2023-05-05T20:54:35.445Z,101155.09
2023-05-05T20:57:03.534Z,101158.20
2023-05-05T20:59:32.120Z,101162.79
2023-05-05T21:02:00.103Z,101163.69
2023-05-05T21:04:28.069Z,101160.15
2023-05-05T21:06:57.279Z,101157.13
2023-05-05T21:09:25.204Z,101161.03
2023-05-05T21:11:53.032Z,101159.70
2023-05-05T21:14:20.808Z,101162.54
2023-05-05T21:16:48.765Z,101161.73
2023-05-05T21:19:16.790Z,101159.76
2023-05-05T21:21:44.628Z,101160.52
2023-05-05T21:24:15.451Z,101159.66
2023-05-05T21:26:44.664Z,101152.36
2023-05-05T21:29:12.533Z,101139.93
2023-05-05T21:31:40.553Z,101140.79
2023-05-05T21:34:08.371Z,101138.80
2023-05-05T21:36:37.118Z,101138.57
2023-05-05T21:39:05.081Z,101132.83
2023-05-05T21:41:32.876Z,101128.70
2023-05-05T21:44:00.958Z,101125.64
2023-05-05T21:46:28.817Z,101128.11
2023-05-05T21:48:56.629Z,101121.55
2023-05-05T21:51:24.622Z,101122.49
2023-05-05T21:53:52.693Z,101117.47
2023-05-05T21:56:20.482Z,101125.06
2023-05-05T21:58:48.245Z,101122.64
2023-05-05T22:01:16.006Z,101120.05
2023-05-05T22:03:43.978Z,101119.88
2023-05-05T22:06:12.392Z,101120.63
2023-05-05T22:08:40.353Z,101123.00
2023-05-05T22:11:08.245Z,101124.66
2023-05-05T22:13:37.474Z,101122.14
2023-05-05T22:16:09.746Z,101121.19
2023-05-05T22:18:37.874Z,101119.55
2023-05-05T22:21:05.971Z,101116.35
2023-05-05T22:23:33.821Z,101112.39
2023-05-05T22:26:01.950Z,101114.28
2023-05-05T22:28:29.818Z,101106.88
2023-05-05T22:30:57.613Z,101107.70
2023-05-05T22:33:25.494Z,101105.84
2023-05-05T22:35:53.310Z,101107.20
2023-05-05T22:38:21.112Z,101101.23
2023-05-05T22:40:49.105Z,101103.40
2023-05-05T22:43:16.948Z,101099.31
2023-05-05T22:45:45.121Z,101100.39
2023-05-05T22:48:12.933Z,101103.20
2023-05-05T22:50:41.345Z,101103.41
2023-05-05T22:53:09.139Z,101095.06
2023-05-05T22:55:36.937Z,101093.67
2023-05-05T22:58:04.687Z,101091.78
2023-05-05T23:00:32.634Z,101093.26
2023-05-05T23:03:00.538Z,101095.23
2023-05-05T23:05:28.453Z,101094.12
2023-05-05T23:07:59.815Z,101092.94
2023-05-05T23:10:29.129Z,101087.13
2023-05-05T23:12:56.907Z,101091.63
2023-05-05T23:15:24.957Z,101088.37
2023-05-05T23:17:52.836Z,101092.91
2023-05-05T23:20:20.887Z,101086.31
2023-05-05T23:22:48.711Z,101085.02
2023-05-05T23:25:16.560Z,101084.98
2023-05-05T23:27:44.361Z,101077.75
2023-05-05T23:30:13.396Z,101076.14
2023-05-05T23:32:42.651Z,101082.87
2023-05-05T23:35:11.225Z,101074.92
2023-05-05T23:37:39.366Z,101077.48
2023-05-05T23:40:08.564Z,101083.02
2023-05-05T23:42:36.479Z,101077.04
2023-05-05T23:45:04.742Z,101072.80
2023-05-05T23:47:32.690Z,101070.45
2023-05-05T23:50:00.686Z,101066.98
2023-05-05T23:52:28.549Z,101064.52
2023-05-05T23:54:56.570Z,101063.63
2023-05-05T23:57:24.416Z,101057.86
2023-05-05T23:59:52.516Z,101056.42
